createdAt,value
2018-11-07T00:00:25.366Z,101.03
2018-11-07T00:03:20.037Z,83.27
2018-11-07T00:08:48.968Z,85.80
2018-11-07T00:11:18.062Z,70.63
2018-11-07T00:13:47.143Z,78.63
2018-11-07T00:16:23.282Z,72.57
2018-11-07T00:18:52.491Z,77.33
2018-11-07T00:21:21.622Z,79.07
2018-11-07T00:23:54.464Z,86.57
2018-11-07T00:26:51.818Z,85.17
2018-11-07T00:29:20.899Z,80.13
2018-11-07T00:31:55.078Z,75.10
2018-11-07T00:34:24.230Z,68.93
2018-11-07T00:36:53.369Z,83.77
2018-11-07T00:39:22.447Z,81.53
2018-11-07T00:41:51.552Z,79.13
2018-11-07T00:44:26.683Z,85.37
2018-11-07T00:46:56.133Z,79.93
2018-11-07T00:49:26.205Z,76.70
2018-11-07T01:05:34.527Z,80.60
2018-11-07T01:08:03.677Z,83.23
2018-11-07T01:10:32.883Z,88.93
2018-11-07T01:15:49.685Z,87.73
2018-11-07T01:18:18.780Z,84.97
2018-11-07T01:20:47.859Z,97.53
2018-11-07T01:23:16.886Z,97.43
2018-11-07T01:25:45.949Z,90.60
2018-11-07T01:28:15.135Z,88.00
2018-11-07T01:30:44.320Z,98.80
2018-11-07T01:33:33.557Z,84.23
2018-11-07T01:36:06.741Z,84.50
2018-11-07T01:38:35.961Z,96.40
2018-11-07T01:41:10.769Z,84.37
2018-11-07T01:43:39.940Z,80.53
2018-11-07T01:46:09.181Z,85.27
2018-11-07T01:48:38.392Z,93.57
2018-11-07T01:51:08.062Z,106.50
2018-11-07T01:53:37.738Z,90.37
2018-11-07T01:56:07.310Z,90.03
2018-11-07T01:58:36.482Z,94.20
2018-11-07T02:01:05.684Z,98.47
2018-11-07T02:03:35.181Z,96.43
2018-11-07T02:06:10.444Z,92.30
2018-11-07T02:13:30.893Z,91.73
2018-11-07T02:16:00.113Z,92.23
2018-11-07T02:18:29.222Z,82.57
2018-11-07T02:21:15.663Z,100.27
2018-11-07T02:23:45.976Z,86.40
2018-11-07T02:26:15.135Z,85.03
2018-11-07T02:28:44.257Z,99.60
2018-11-07T02:31:13.694Z,96.40
2018-11-07T02:36:52.620Z,93.03
2018-11-07T02:39:21.686Z,97.87
2018-11-07T02:41:50.791Z,84.03
2018-11-07T02:44:45.195Z,105.97
2018-11-07T02:47:31.566Z,88.10
2018-11-07T02:51:17.922Z,86.80
2018-11-07T02:53:47.037Z,103.57
2018-11-07T02:56:17.460Z,89.80
2018-11-07T02:58:47.835Z,101.40
2018-11-07T03:01:18.335Z,103.13
2018-11-07T03:03:47.461Z,96.27
2018-11-07T03:06:16.864Z,98.47
2018-11-07T03:08:45.912Z,107.10
2018-11-07T03:11:14.903Z,94.73
2018-11-07T03:13:44.080Z,96.03
2018-11-07T03:16:21.426Z,88.63
2018-11-07T03:18:52.134Z,101.83
2018-11-07T03:21:21.331Z,90.87
2018-11-07T03:23:52.699Z,87.97
2018-11-07T03:26:21.962Z,102.00
2018-11-07T03:28:51.128Z,95.07
2018-11-07T03:31:28.091Z,97.73
2018-11-07T03:33:58.408Z,106.90
2018-11-07T03:36:28.248Z,99.43
2018-11-07T03:38:57.434Z,98.67
2018-11-07T03:41:26.561Z,97.70
2018-11-07T03:47:27.139Z,91.92
2018-11-07T03:49:57.032Z,86.50
2018-11-07T03:52:26.237Z,97.70
2018-11-07T03:55:25.663Z,98.43
2018-11-07T03:57:54.740Z,103.63
2018-11-07T04:03:23.504Z,83.13
2018-11-07T04:05:52.709Z,85.17
2018-11-07T04:08:21.774Z,98.50
2018-11-07T04:13:59.946Z,83.60
2018-11-07T04:16:31.387Z,96.50
2018-11-07T04:28:03.622Z,92.13
2018-11-07T04:30:33.361Z,91.27
2018-11-07T04:40:58.955Z,107.22
2018-11-07T04:43:35.125Z,105.97
2018-11-07T04:46:04.229Z,105.97
2018-11-07T04:48:33.381Z,100.13
2018-11-07T04:51:02.632Z,104.83
2018-11-07T04:56:31.445Z,95.30
2018-11-07T04:59:07.705Z,96.30
2018-11-07T05:01:36.965Z,94.03
2018-11-07T05:04:06.171Z,100.50
2018-11-07T05:09:37.455Z,102.10
2018-11-07T05:15:13.399Z,102.30
2018-11-07T05:17:42.567Z,108.13
2018-11-07T05:20:12.105Z,111.73
2018-11-07T05:22:41.271Z,103.27
2018-11-07T05:25:41.778Z,115.70
2018-11-07T05:40:42.729Z,123.60
2018-11-07T05:43:11.905Z,113.90
2018-11-07T05:45:47.424Z,108.13
2018-11-07T05:51:18.468Z,121.37
2018-11-07T05:54:16.312Z,104.90
2018-11-07T05:57:53.807Z,134.67
2018-11-07T06:03:23.455Z,108.20
2018-11-07T06:11:53.809Z,116.20
2018-11-07T06:14:22.885Z,139.37
2018-11-07T06:16:52.232Z,110.03
2018-11-07T06:20:00.053Z,135.30
2018-11-07T06:22:49.720Z,157.60
2018-11-07T06:25:22.465Z,129.70
2018-11-07T06:27:52.114Z,126.23
2018-11-07T06:30:21.407Z,149.17
2018-11-07T06:32:56.016Z,122.87
2018-11-07T06:35:51.208Z,94.27
2018-11-07T06:45:25.594Z,111.93
2018-11-07T06:48:23.720Z,107.93
2018-11-07T06:53:58.664Z,99.67
2018-11-07T06:56:28.038Z,108.77
2018-11-07T06:58:57.362Z,115.33
2018-11-07T07:03:02.072Z,105.73
2018-11-07T07:08:18.589Z,107.20
2018-11-07T07:10:47.748Z,115.07
2018-11-07T07:13:33.386Z,96.27
2018-11-07T07:16:02.504Z,124.90
2018-11-07T07:46:15.040Z,71.30
2018-11-07T07:48:44.175Z,76.90
2018-11-07T07:54:35.201Z,78.23
2018-11-07T07:57:38.903Z,83.00
2018-11-07T08:00:15.789Z,80.27
2018-11-07T08:02:47.916Z,76.43
2018-11-07T08:05:17.253Z,76.33
2018-11-07T08:07:47.164Z,77.80
2018-11-07T08:10:19.421Z,75.57
2018-11-07T08:12:49.090Z,70.17
2018-11-07T08:15:18.855Z,67.43
2018-11-07T08:17:47.904Z,76.30
2018-11-07T08:20:17.885Z,74.70
2018-11-07T08:22:47.577Z,77.97
2018-11-07T08:25:16.972Z,73.57
2018-11-07T08:27:46.258Z,98.23
2018-11-07T08:30:16.703Z,78.90
2018-11-07T08:32:45.895Z,61.23
2018-11-07T08:38:07.715Z,55.27
2018-11-07T08:40:36.749Z,60.20
2018-11-07T08:43:08.915Z,55.93
2018-11-07T08:45:39.853Z,59.07
2018-11-07T08:48:09.292Z,52.87
2018-11-07T08:50:38.467Z,50.70
2018-11-07T08:53:07.703Z,55.17
2018-11-07T08:55:36.747Z,52.90
2018-11-07T08:58:05.800Z,54.27
2018-11-07T09:00:47.986Z,47.13
2018-11-07T09:03:17.156Z,55.20
2018-11-07T09:06:18.945Z,53.43
2018-11-07T09:08:48.247Z,50.13
2018-11-07T09:11:18.410Z,48.50
2018-11-07T09:13:47.535Z,48.97
2018-11-07T09:17:04.595Z,49.60
2018-11-07T09:19:55.046Z,45.47
2018-11-07T09:22:24.354Z,48.10
2018-11-07T09:25:17.862Z,50.73
2018-11-07T09:30:59.050Z,50.25
2018-11-07T09:33:28.109Z,51.80
2018-11-07T09:35:57.257Z,49.63
2018-11-07T09:38:26.447Z,63.07
2018-11-07T09:41:22.746Z,47.20
2018-11-07T09:43:54.173Z,50.10
2018-11-07T09:46:23.303Z,45.80
2018-11-07T09:48:54.534Z,42.03
2018-11-07T09:51:23.667Z,40.50
2018-11-07T09:54:25.400Z,42.97
2018-11-07T09:56:56.121Z,47.40
2018-11-07T09:59:26.057Z,50.70
2018-11-07T10:01:55.749Z,40.63
2018-11-07T10:04:30.772Z,43.03
2018-11-07T10:07:02.684Z,40.03
2018-11-07T10:09:59.737Z,37.37
2018-11-07T10:12:29.380Z,36.93
2018-11-07T10:15:10.410Z,37.07
2018-11-07T10:17:39.870Z,42.07
2018-11-07T10:47:43.397Z,46.60
2018-11-07T10:50:17.531Z,39.87
2018-11-07T10:52:48.380Z,41.50
2018-11-07T10:55:18.548Z,39.93
2018-11-07T10:57:47.714Z,37.30
2018-11-07T11:03:37.732Z,38.30
2018-11-07T11:06:08.350Z,35.93
2018-11-07T11:08:37.934Z,34.90
2018-11-07T11:11:07.355Z,36.60
2018-11-07T11:13:36.752Z,39.23
2018-11-07T11:16:07.762Z,35.97
2018-11-07T11:18:37.042Z,31.97
2018-11-07T11:21:06.602Z,32.23
2018-11-07T11:23:36.098Z,30.07
2018-11-07T11:26:05.489Z,29.93
2018-11-07T11:28:34.626Z,26.57
2018-11-07T11:31:16.460Z,24.23
2018-11-07T11:33:51.043Z,25.03
2018-11-07T11:36:20.312Z,27.17
2018-11-07T11:38:49.466Z,24.47
2018-11-07T11:41:27.332Z,52.07
2018-11-07T11:44:14.168Z,22.60
2018-11-07T11:46:56.766Z,28.57
2018-11-07T11:49:25.994Z,27.00
2018-11-07T11:51:55.157Z,23.80
2018-11-07T11:54:50.827Z,24.90
2018-11-07T11:57:20.036Z,41.20
2018-11-07T11:59:49.647Z,28.00
2018-11-07T12:02:19.287Z,19.47
2018-11-07T12:04:48.490Z,25.07
2018-11-07T12:10:52.506Z,26.07
2018-11-07T12:13:21.824Z,22.30
2018-11-07T12:15:51.053Z,30.60
2018-11-07T12:18:20.319Z,24.50
2018-11-07T12:20:49.810Z,22.43
2018-11-07T12:23:19.142Z,19.63
2018-11-07T12:25:49.911Z,22.57
2018-11-07T12:31:39.221Z,27.03
2018-11-07T12:34:08.322Z,31.00
2018-11-07T12:36:38.885Z,23.10
2018-11-07T12:39:09.644Z,22.73
2018-11-07T12:41:39.042Z,27.10
2018-11-07T12:44:09.130Z,28.37
2018-11-07T12:46:38.313Z,24.83
2018-11-07T12:49:07.474Z,33.97
2018-11-07T12:51:36.666Z,23.27
2018-11-07T13:19:27.900Z,20.10
2018-11-07T13:21:57.371Z,17.10
2018-11-07T13:24:27.427Z,16.83
2018-11-07T13:26:56.621Z,19.50
2018-11-07T13:29:26.085Z,21.70
2018-11-07T13:32:01.061Z,16.67
2018-11-07T13:34:33.128Z,19.53
2018-11-07T13:37:03.168Z,27.33
2018-11-07T13:39:58.448Z,30.47
2018-11-07T13:43:15.800Z,15.77
2018-11-07T13:45:45.043Z,21.67
2018-11-07T13:48:14.314Z,13.97
2018-11-07T13:50:43.587Z,20.57
2018-11-07T13:53:12.750Z,16.27
2018-11-07T13:55:41.809Z,9.83
2018-11-07T13:58:12.030Z,8.73
2018-11-07T14:00:41.243Z,14.63
2018-11-07T14:03:10.282Z,15.20
2018-11-07T14:05:39.628Z,12.63
2018-11-07T14:08:08.817Z,11.90
2018-11-07T14:10:38.545Z,14.30
2018-11-07T14:13:07.787Z,15.90
2018-11-07T14:15:37.121Z,11.97
2018-11-07T14:18:06.623Z,7.67
2018-11-07T14:20:35.756Z,6.50
2018-11-07T14:23:04.853Z,6.40
2018-11-07T14:25:33.995Z,9.90
2018-11-07T14:28:03.280Z,9.07
2018-11-07T14:30:32.268Z,13.87
2018-11-07T14:33:02.675Z,12.77
2018-11-07T14:35:31.798Z,9.07
2018-11-07T14:38:00.888Z,7.33
2018-11-07T14:40:30.105Z,9.50
2018-11-07T14:43:01.282Z,16.60
2018-11-07T14:45:32.271Z,8.80
2018-11-07T14:48:01.420Z,9.37
2018-11-07T14:50:30.554Z,9.47
2018-11-07T14:52:59.818Z,8.53
2018-11-07T14:55:29.630Z,13.07
2018-11-07T14:57:59.396Z,10.50
2018-11-07T15:00:43.745Z,9.43
2018-11-07T15:03:46.789Z,14.00
2018-11-07T15:06:42.321Z,15.80
2018-11-07T15:09:15.381Z,8.10
2018-11-07T15:11:45.513Z,10.30
2018-11-07T15:14:14.697Z,10.27
2018-11-07T15:16:43.938Z,11.17
2018-11-07T15:19:14.182Z,15.30
2018-11-07T15:21:58.514Z,11.17
2018-11-07T15:25:21.146Z,13.40
2018-11-07T15:27:50.590Z,16.40
2018-11-07T15:30:36.974Z,9.97
2018-11-07T15:33:06.850Z,13.13
2018-11-07T15:35:44.377Z,13.57
2018-11-07T15:38:20.749Z,13.33
2018-11-07T15:41:49.578Z,10.73
2018-11-07T15:44:19.380Z,10.97
2018-11-07T15:46:49.162Z,11.83
2018-11-07T15:49:18.633Z,10.90
2018-11-07T15:51:55.705Z,13.57
2018-11-07T15:54:25.379Z,12.30
2018-11-07T15:57:20.938Z,12.73
2018-11-07T15:59:50.084Z,15.00
2018-11-07T16:02:19.614Z,11.23
2018-11-07T16:04:51.347Z,19.73
2018-11-07T16:07:20.644Z,13.90
2018-11-07T16:09:49.922Z,13.87
2018-11-07T16:12:19.422Z,15.20
2018-11-07T16:14:48.822Z,14.93
2018-11-07T16:17:21.370Z,14.47
2018-11-07T16:20:12.362Z,13.87
2018-11-07T16:22:45.207Z,14.63
2018-11-07T16:25:14.492Z,25.17
2018-11-07T16:27:56.082Z,13.63
2018-11-07T16:30:25.441Z,11.07
2018-11-07T16:32:55.954Z,15.40
2018-11-07T16:35:26.068Z,12.80
2018-11-07T16:38:01.033Z,11.63
2018-11-07T16:40:30.988Z,14.70
2018-11-07T16:43:32.779Z,12.50
2018-11-07T16:46:05.026Z,14.23
2018-11-07T16:48:34.786Z,14.00
2018-11-07T16:51:04.274Z,14.20
2018-11-07T16:53:33.950Z,18.00
2018-11-07T16:56:18.340Z,18.30
2018-11-07T16:58:55.720Z,15.10
2018-11-07T17:01:25.146Z,17.60
2018-11-07T17:03:54.278Z,18.13
2018-11-07T17:06:23.326Z,15.63
2018-11-07T17:08:53.466Z,13.60
2018-11-07T17:11:22.534Z,14.03
2018-11-07T17:13:51.978Z,14.47
2018-11-07T17:16:21.218Z,17.33
2018-11-07T17:18:50.896Z,19.10
2018-11-07T17:21:20.250Z,17.17
2018-11-07T17:23:49.344Z,27.87
2018-11-07T17:26:18.499Z,22.67
2018-11-07T17:28:47.613Z,19.00
2018-11-07T17:31:17.275Z,19.40
2018-11-07T17:33:49.126Z,19.83
2018-11-07T17:36:18.390Z,14.40
2018-11-07T17:38:47.469Z,20.77
2018-11-07T17:41:16.746Z,19.47
2018-11-07T17:43:45.962Z,17.93
2018-11-07T17:46:21.790Z,17.10
2018-11-07T17:48:51.022Z,18.63
2018-11-07T17:51:20.147Z,20.13
2018-11-07T17:53:49.387Z,23.13
2018-11-07T17:56:18.525Z,21.83
2018-11-07T17:58:47.830Z,19.20
2018-11-07T18:01:16.978Z,23.77
2018-11-07T18:03:46.720Z,23.00
2018-11-07T18:06:15.840Z,20.63
2018-11-07T18:08:45.218Z,20.70
2018-11-07T18:11:14.407Z,19.80
2018-11-07T18:13:43.761Z,17.90
2018-11-07T18:16:13.653Z,21.77
2018-11-07T18:18:43.659Z,27.03
2018-11-07T18:21:13.494Z,19.80
2018-11-07T18:23:43.392Z,23.17
2018-11-07T18:26:12.688Z,28.00
2018-11-07T18:28:41.994Z,28.53
2018-11-07T18:31:11.230Z,23.83
2018-11-07T18:33:40.382Z,23.67
2018-11-07T18:36:09.645Z,24.57
2018-11-07T18:38:52.578Z,28.27
2018-11-07T18:41:22.481Z,22.70
2018-11-07T18:43:51.718Z,24.30
2018-11-07T18:46:20.936Z,25.80
2018-11-07T18:49:27.431Z,20.80
2018-11-07T18:51:57.693Z,28.20
2018-11-07T18:54:27.030Z,22.40
2018-11-07T18:56:56.563Z,27.80
2018-11-07T18:59:26.484Z,21.37
2018-11-07T19:01:56.308Z,27.03
2018-11-07T19:04:25.685Z,24.03
2018-11-07T19:06:55.163Z,21.27
2018-11-07T19:09:24.515Z,26.00
2018-11-07T19:11:53.920Z,24.03
2018-11-07T19:14:23.266Z,23.07
2018-11-07T19:16:52.673Z,23.73
2018-11-07T19:19:23.825Z,20.23
2018-11-07T19:21:53.802Z,25.70
2018-11-07T19:58:56.941Z,23.62
2018-11-07T20:01:32.375Z,21.40
2018-11-07T20:04:02.372Z,19.00
2018-11-07T20:06:31.821Z,23.10
2018-11-07T20:09:01.627Z,21.70
2018-11-07T20:11:39.124Z,24.03
2018-11-07T20:14:08.601Z,21.27
2018-11-07T20:16:38.582Z,23.23
2018-11-07T20:19:08.233Z,22.03
2018-11-07T20:22:43.870Z,24.60
2018-11-07T20:27:41.997Z,22.17
2018-11-07T20:30:15.014Z,21.87
2018-11-07T20:32:44.451Z,23.73
2018-11-07T20:35:16.252Z,23.33
2018-11-07T20:37:45.689Z,24.60
2018-11-07T20:40:16.207Z,20.80
2018-11-07T20:42:45.630Z,22.23
2018-11-07T20:45:17.493Z,22.03
2018-11-07T20:49:22.835Z,19.00
2018-11-07T20:52:10.402Z,26.03
2018-11-07T20:54:40.336Z,19.10
2018-11-07T20:57:10.331Z,24.13
2018-11-07T20:59:40.763Z,26.87
2018-11-07T21:02:12.208Z,23.17
2018-11-07T21:09:54.121Z,20.95
2018-11-07T21:12:31.040Z,21.83
2018-11-07T21:15:00.863Z,20.17
2018-11-07T21:17:30.066Z,20.60
2018-11-07T21:20:14.445Z,21.23
2018-11-07T21:22:44.579Z,22.80
2018-11-07T21:26:52.304Z,24.77
2018-11-07T21:32:45.239Z,21.10
2018-11-07T21:35:14.467Z,21.73
2018-11-07T21:40:57.110Z,19.85
2018-11-07T21:46:30.226Z,20.97
2018-11-07T21:48:59.557Z,24.77
2018-11-07T21:51:29.134Z,19.37
2018-11-07T21:54:33.479Z,19.67
2018-11-07T21:57:19.011Z,17.40
2018-11-07T21:59:51.334Z,18.20
2018-11-07T22:02:20.869Z,18.27
2018-11-07T22:04:54.447Z,23.37
2018-11-07T22:07:39.056Z,19.50
2018-11-07T22:10:09.590Z,21.67
2018-11-07T22:12:38.826Z,17.53
2018-11-07T22:15:09.640Z,18.70
2018-11-07T22:17:38.774Z,17.87
2018-11-07T22:20:14.408Z,15.60
2018-11-07T22:22:43.981Z,21.47
2018-11-07T22:28:13.488Z,17.93
2018-11-07T22:30:42.798Z,15.70
2018-11-07T22:33:11.956Z,18.00
2018-11-07T22:35:41.082Z,17.60
2018-11-07T22:38:10.150Z,16.73
2018-11-07T22:40:39.238Z,18.00
2018-11-07T22:43:08.360Z,19.70
2018-11-07T22:46:01.128Z,18.90
2018-11-07T22:51:30.611Z,17.40
2018-11-07T22:53:59.861Z,21.27
2018-11-07T22:56:31.285Z,17.10
2018-11-07T22:59:15.327Z,17.20
2018-11-07T23:01:58.845Z,17.33
2018-11-07T23:04:34.908Z,18.80
2018-11-07T23:07:04.223Z,16.90
2018-11-07T23:12:28.245Z,17.53
2018-11-07T23:15:02.419Z,15.53
2018-11-07T23:17:31.707Z,14.70
2018-11-07T23:20:01.070Z,22.73
2018-11-07T23:22:30.172Z,15.83
2018-11-07T23:24:59.286Z,19.70
2018-11-07T23:27:50.750Z,15.73
2018-11-07T23:30:34.677Z,21.13
2018-11-07T23:33:03.819Z,20.57
2018-11-07T23:35:32.931Z,23.53
2018-11-07T23:38:02.062Z,24.57
2018-11-07T23:40:31.224Z,19.17
2018-11-07T23:43:00.311Z,18.73
2018-11-07T23:45:30.053Z,20.20
2018-11-07T23:47:59.060Z,19.43
2018-11-07T23:50:28.149Z,18.90
2018-11-07T23:52:57.232Z,18.80
2018-11-07T23:55:26.289Z,18.77
2018-11-07T23:57:55.371Z,19.13
